Time;durP1;ratioP1;P1;durP2;ratioP2;P2;SDS_P1;SDS_P2;PMS_P1;PMS_P2;Temp;Humidity;BMP_temperature;BMP_pressure;BME280_temperature;BME280_humidity;BME280_pressure;Samples;Min_cycle;Max_cycle;Signal;HPM_P1;HPM_P2
2021/06/19 00:00:41;;;;;;;15.85;6.30;;;;;;;17.55;57.11;101090.44;5053036;28;20093;-89
2021/06/19 00:03:07;;;;;;;14.23;3.92;;;;;;;17.45;57.13;101092.84;5033019;28;20087;-89
2021/06/19 00:05:33;;;;;;;15.25;3.70;;;;;;;17.57;56.27;101086.75;5036121;28;20552;-88
2021/06/19 00:07:58;;;;;;;9.00;3.80;;;;;;;17.56;56.70;101087.72;5016795;28;20029;-87
2021/06/19 00:10:24;;;;;;;9.27;3.83;;;;;;;17.49;56.56;101089.03;5028706;28;20474;-91
2021/06/19 00:12:51;;;;;;;10.82;3.92;;;;;;;17.46;56.82;101086.59;5035787;28;20036;-89
2021/06/19 00:15:19;;;;;;;6.60;3.70;;;;;;;17.22;57.20;101091.66;5038056;28;20091;-90
2021/06/19 00:17:46;;;;;;;13.07;4.15;;;;;;;17.02;58.02;101095.59;5030589;28;20029;-90
2021/06/19 00:20:21;;;;;;;12.02;4.43;;;;;;;16.93;57.99;101094.38;5039162;28;20044;-89
2021/06/19 00:22:47;;;;;;;12.18;4.13;;;;;;;17.11;57.68;101092.34;5034598;28;20041;-88
2021/06/19 00:25:14;;;;;;;13.43;4.63;;;;;;;16.91;58.03;101103.34;5029739;28;20059;-88
2021/06/19 00:27:40;;;;;;;14.70;4.03;;;;;;;17.02;58.04;101100.88;5034529;28;20029;-89
2021/06/19 00:30:08;;;;;;;15.13;3.95;;;;;;;17.04;57.82;101104.25;5036845;28;20056;-88
2021/06/19 00:32:34;;;;;;;12.05;4.28;;;;;;;17.19;57.25;101097.16;5032500;28;20561;-87
2021/06/19 00:35:00;;;;;;;6.35;3.22;;;;;;;17.20;57.13;101105.00;5022218;28;20115;-88
2021/06/19 00:37:25;;;;;;;7.22;3.97;;;;;;;16.86;58.35;101110.72;5034919;28;20024;-88
2021/06/19 00:39:51;;;;;;;14.70;4.60;;;;;;;17.19;57.54;101105.94;5023707;28;20025;-87
2021/06/19 00:42:20;;;;;;;12.30;4.38;;;;;;;17.27;57.24;101109.84;5050128;28;20033;-85
2021/06/19 00:44:47;;;;;;;7.07;3.85;;;;;;;17.23;57.53;101099.50;5038166;28;21218;-89
2021/06/19 00:47:13;;;;;;;15.13;4.28;;;;;;;17.24;57.07;101110.91;5015441;28;20501;-90
2021/06/19 00:49:39;;;;;;;15.40;4.35;;;;;;;17.11;57.46;101105.56;5015828;28;20040;-88
2021/06/19 00:52:05;;;;;;;10.85;4.40;;;;;;;17.10;57.63;101109.16;5013273;28;20060;-87
2021/06/19 00:54:30;;;;;;;9.15;3.35;;;;;;;17.15;57.38;101112.34;5022100;28;20576;-88
2021/06/19 00:56:56;;;;;;;10.60;4.50;;;;;;;17.13;57.50;101114.25;5023723;28;20029;-88
2021/06/19 00:59:22;;;;;;;11.27;3.53;;;;;;;17.15;57.27;101122.06;5051511;28;20045;-88
2021/06/19 01:01:48;;;;;;;14.05;3.97;;;;;;;17.16;57.24;101113.22;5018307;28;20053;-90
2021/06/19 01:04:14;;;;;;;10.15;4.50;;;;;;;17.22;57.46;101118.97;5013641;28;21548;-89
2021/06/19 01:06:40;;;;;;;8.02;3.90;;;;;;;17.32;57.42;101118.34;5028997;28;20068;-89
2021/06/19 01:09:08;;;;;;;9.13;4.80;;;;;;;17.22;57.32;101126.88;5037544;28;20034;-87
2021/06/19 01:11:35;;;;;;;11.40;4.65;;;;;;;16.94;57.97;101126.94;5027246;28;20423;-88
2021/06/19 01:14:02;;;;;;;17.00;4.70;;;;;;;17.13;57.27;101127.44;5035218;28;20049;-89
2021/06/19 01:16:28;;;;;;;15.25;4.47;;;;;;;17.16;57.39;101123.78;5034858;28;20029;-90
2021/06/19 01:18:53;;;;;;;9.57;4.18;;;;;;;17.18;57.37;101127.16;5019672;28;20056;-87
2021/06/19 01:21:25;;;;;;;9.85;5.53;;;;;;;17.20;57.42;101120.84;5051890;28;20044;-88
2021/06/19 01:23:52;;;;;;;9.38;4.35;;;;;;;17.26;57.22;101121.38;5039725;28;20061;-88
2021/06/19 01:26:19;;;;;;;13.30;4.53;;;;;;;17.27;57.28;101118.66;5023777;28;20041;-87
2021/06/19 01:28:47;;;;;;;10.45;4.30;;;;;;;17.28;57.16;101114.22;5054711;28;20029;-90
2021/06/19 01:31:13;;;;;;;11.25;4.43;;;;;;;17.27;57.24;101121.28;5015809;28;20043;-88
2021/06/19 01:33:40;;;;;;;9.15;4.32;;;;;;;17.17;57.18;101118.38;5016826;28;20033;-88
2021/06/19 01:36:06;;;;;;;8.43;4.15;;;;;;;17.16;57.39;101119.34;5035704;28;20081;-89
2021/06/19 01:38:37;;;;;;;9.18;4.93;;;;;;;17.11;57.49;101110.84;5037078;28;20014;-87
2021/06/19 01:41:03;;;;;;;7.03;4.43;;;;;;;17.14;57.45;101121.22;5047166;28;20044;-88
2021/06/19 01:43:28;;;;;;;8.23;4.97;;;;;;;17.07;57.82;101119.94;5015420;28;20209;-88
2021/06/19 01:45:54;;;;;;;9.27;5.22;;;;;;;17.01;57.80;101117.69;5013750;28;20084;-88
2021/06/19 01:48:19;;;;;;;11.15;5.57;;;;;;;17.00;57.97;101121.25;5017624;28;20104;-88
2021/06/19 01:50:45;;;;;;;10.73;5.57;;;;;;;16.98;58.22;101117.88;5015356;28;20113;-89
2021/06/19 01:53:10;;;;;;;11.00;5.13;;;;;;;16.99;57.66;101112.47;5020161;28;20410;-89
2021/06/19 01:55:36;;;;;;;10.70;5.03;;;;;;;17.02;57.72;101111.44;5021162;28;20061;-89
2021/06/19 01:58:02;;;;;;;13.52;5.78;;;;;;;16.88;58.22;101107.03;5018944;28;20041;-87
2021/06/19 02:00:34;;;;;;;7.88;5.60;;;;;;;16.93;58.62;101102.31;5019484;28;20033;-88
2021/06/19 02:03:00;;;;;;;7.78;5.40;;;;;;;17.01;58.15;101099.19;5035923;28;20052;-89
2021/06/19 02:05:27;;;;;;;10.10;5.00;;;;;;;16.99;58.06;101104.56;5033735;28;20063;-88
2021/06/19 02:07:57;;;;;;;7.82;5.57;;;;;;;16.95;58.49;101102.22;5035941;28;20044;-89
2021/06/19 02:10:29;;;;;;;12.77;5.13;;;;;;;16.91;58.31;101093.66;5018947;28;20033;-89
2021/06/19 02:12:55;;;;;;;8.02;5.53;;;;;;;16.92;58.47;101097.13;5050655;28;20021;-88
2021/06/19 02:15:21;;;;;;;5.95;5.22;;;;;;;16.93;58.36;101096.19;5024298;28;20110;-88
2021/06/19 02:17:47;;;;;;;11.98;6.28;;;;;;;16.90;58.42;101096.38;5036923;28;20541;-88
2021/06/19 02:20:15;;;;;;;8.10;6.95;;;;;;;16.85;58.78;101091.41;5017367;28;20121;-89
2021/06/19 02:22:40;;;;;;;13.40;6.13;;;;;;;16.91;58.30;101092.78;5024631;28;20056;-91
2021/06/19 02:25:09;;;;;;;9.02;6.15;;;;;;;16.72;59.16;101091.28;5021174;28;20049;-90
2021/06/19 02:27:35;;;;;;;9.90;6.13;;;;;;;17.08;58.03;101091.72;5050914;28;20033;-89
2021/06/19 02:30:01;;;;;;;10.32;6.07;;;;;;;16.97;58.08;101084.50;5033427;28;20078;-88
2021/06/19 02:32:26;;;;;;;10.55;5.95;;;;;;;17.02;57.81;101082.38;5022400;28;20033;-87
2021/06/19 02:34:52;;;;;;;12.07;6.97;;;;;;;16.98;58.08;101089.69;5020822;28;20110;-88
2021/06/19 02:37:19;;;;;;;9.63;5.70;;;;;;;17.12;57.98;101096.72;5034150;28;20088;-88
2021/06/19 02:39:45;;;;;;;7.47;6.50;;;;;;;17.07;57.95;101088.25;5017834;28;20032;-88
2021/06/19 02:42:11;;;;;;;12.65;6.35;;;;;;;17.02;57.94;101095.59;5022217;28;20057;-88
2021/06/19 02:44:36;;;;;;;8.02;6.15;;;;;;;17.05;57.97;101098.06;5038589;28;20083;-88
2021/06/19 02:47:02;;;;;;;8.20;4.60;;;;;;;17.05;57.80;101095.41;5034768;28;20108;-89
2021/06/19 02:49:29;;;;;;;11.63;6.65;;;;;;;17.09;57.92;101104.84;5039639;28;20029;-88
2021/06/19 02:51:55;;;;;;;10.27;5.80;;;;;;;17.11;57.61;101105.56;5034971;28;20037;-87
2021/06/19 02:54:20;;;;;;;10.13;6.13;;;;;;;17.10;57.74;101103.88;5038989;28;20041;-89
2021/06/19 02:56:46;;;;;;;8.43;5.90;;;;;;;17.10;57.42;101103.88;5034179;28;20065;-88
2021/06/19 02:59:11;;;;;;;12.40;6.45;;;;;;;17.00;58.00;101093.06;5023515;28;20036;-89
2021/06/19 03:01:37;;;;;;;8.82;6.55;;;;;;;16.97;57.83;101095.06;5019164;28;20064;-91
2021/06/19 03:04:02;;;;;;;11.57;7.55;;;;;;;16.88;58.04;101091.19;5034710;28;20052;-90
2021/06/19 03:06:28;;;;;;;9.10;7.57;;;;;;;16.75;58.23;101096.41;5015616;28;20490;-89
2021/06/19 03:08:53;;;;;;;10.20;8.18;;;;;;;16.74;58.52;101099.97;5017969;28;20544;-88
2021/06/19 03:11:19;;;;;;;13.35;6.60;;;;;;;16.83;58.49;101096.78;5015377;28;20585;-89
2021/06/19 03:13:44;;;;;;;9.35;7.45;;;;;;;16.82;58.38;101094.22;5025327;28;20045;-88
2021/06/19 03:16:10;;;;;;;11.27;7.28;;;;;;;16.81;58.45;101095.19;5034660;28;20456;-89
2021/06/19 03:18:35;;;;;;;10.23;7.82;;;;;;;16.78;58.40;101098.84;5037744;28;20021;-88
2021/06/19 03:21:01;;;;;;;11.63;7.82;;;;;;;16.74;58.34;101093.84;5046831;28;20406;-87
2021/06/19 03:23:26;;;;;;;9.02;6.85;;;;;;;16.70;58.66;101098.44;5038575;28;20423;-85
2021/06/19 03:25:52;;;;;;;9.40;7.13;;;;;;;16.72;58.71;101107.13;5034786;28;20037;-88
2021/06/19 03:28:17;;;;;;;11.85;8.25;;;;;;;16.78;58.73;101100.66;5019827;28;20058;-89
2021/06/19 03:30:45;;;;;;;10.30;8.98;;;;;;;16.77;58.77;101101.59;5010006;28;20033;-89
2021/06/19 03:33:12;;;;;;;9.02;7.68;;;;;;;16.77;58.71;101097.16;5014792;28;20040;-89
2021/06/19 03:35:38;;;;;;;9.73;7.50;;;;;;;16.78;58.98;101098.84;5037632;28;20040;-88
2021/06/19 03:38:05;;;;;;;10.48;8.55;;;;;;;16.86;58.69;101098.38;5021511;28;20021;-90
2021/06/19 03:40:32;;;;;;;13.75;9.55;;;;;;;16.87;58.64;101112.41;5017235;28;20041;-89
2021/06/19 03:42:57;;;;;;;12.15;8.48;;;;;;;16.95;58.56;101104.84;5039153;28;20029;-90
2021/06/19 03:45:25;;;;;;;10.05;8.10;;;;;;;17.08;57.94;101116.34;5036310;28;20039;-90
2021/06/19 03:47:53;;;;;;;20.95;10.27;;;;;;;17.09;58.11;101120.69;5032258;28;20029;-90
2021/06/19 03:50:20;;;;;;;10.80;8.68;;;;;;;17.11;58.30;101115.28;5039209;28;20030;-89
2021/06/19 03:52:45;;;;;;;13.63;8.70;;;;;;;17.12;58.17;101117.84;5032868;28;20106;-88
2021/06/19 03:55:12;;;;;;;15.82;10.38;;;;;;;17.13;58.31;101122.16;5038967;28;20780;-89
2021/06/19 03:57:38;;;;;;;13.45;9.20;;;;;;;17.29;58.24;101121.19;5034875;28;20037;-89
2021/06/19 04:00:09;;;;;;;11.35;10.05;;;;;;;17.43;57.97;101134.34;5017437;28;20128;-89
2021/06/19 04:02:38;;;;;;;17.00;10.77;;;;;;;17.41;57.66;101129.16;5040592;28;20041;-89
2021/06/19 04:05:06;;;;;;;18.85;10.18;;;;;;;17.50;57.99;101133.03;5020816;28;20064;-90
2021/06/19 04:07:31;;;;;;;13.55;9.10;;;;;;;17.68;57.96;101135.44;5033573;28;20029;-89
2021/06/19 04:09:57;;;;;;;15.50;9.77;;;;;;;17.71;57.62;101145.78;5042043;28;20049;-88
2021/06/19 04:12:23;;;;;;;19.08;11.10;;;;;;;17.79;57.43;101143.50;5026313;28;20044;-90
2021/06/19 04:14:49;;;;;;;20.85;10.60;;;;;;;17.90;57.13;101150.72;5040601;28;20091;-88
2021/06/19 04:17:15;;;;;;;19.42;12.38;;;;;;;17.95;57.19;101149.44;5037806;28;20037;-90
2021/06/19 04:19:42;;;;;;;19.98;13.50;;;;;;;18.09;57.10;101155.59;5038128;28;20565;-89
2021/06/19 04:22:08;;;;;;;17.95;13.25;;;;;;;18.14;56.88;101157.00;5037927;28;20037;-89
2021/06/19 04:24:37;;;;;;;18.02;12.13;;;;;;;18.19;56.65;101162.84;5025563;28;20038;-88
2021/06/19 04:27:04;;;;;;;19.02;13.45;;;;;;;18.28;56.99;101164.03;5031048;28;20041;-88
2021/06/19 04:29:32;;;;;;;19.50;14.00;;;;;;;17.79;58.24;101154.06;5035271;28;20064;-88
2021/06/19 04:32:01;;;;;;;15.93;13.90;;;;;;;18.28;57.28;101161.38;5023037;28;20030;-88
2021/06/19 04:34:26;;;;;;;27.65;17.27;;;;;;;18.10;57.62;101162.59;5038205;28;20116;-87
2021/06/19 04:36:53;;;;;;;22.73;15.50;;;;;;;18.58;56.74;101157.56;5019542;28;20059;-89
2021/06/19 04:39:19;;;;;;;27.17;16.52;;;;;;;18.59;56.13;101156.63;5036485;28;20029;-89
2021/06/19 04:42:01;;;;;;;20.38;14.50;;;;;;;18.97;55.97;101158.41;5020276;28;20029;-88
2021/06/19 04:44:40;;;;;;;22.30;16.13;;;;;;;18.93;55.84;101155.09;5051431;28;20033;-88
2021/06/19 04:47:06;;;;;;;26.23;16.95;;;;;;;19.01;55.75;101166.00;5016511;28;20285;-90
2021/06/19 04:49:32;;;;;;;24.40;16.40;;;;;;;19.13;55.31;101168.75;5036942;28;20053;-88
2021/06/19 04:51:57;;;;;;;18.75;16.20;;;;;;;19.14;56.22;101170.41;5035021;28;20052;-86
2021/06/19 04:54:23;;;;;;;20.70;15.00;;;;;;;19.60;55.23;101170.59;5023731;28;20034;-89
2021/06/19 04:56:49;;;;;;;23.60;16.85;;;;;;;19.82;54.73;101172.50;5018945;28;20044;-88
2021/06/19 04:59:15;;;;;;;22.13;15.32;;;;;;;19.94;54.25;101173.38;5035839;28;20030;-88
2021/06/19 05:01:41;;;;;;;22.83;15.88;;;;;;;19.73;54.71;101169.72;5038723;28;20036;-88
2021/06/19 05:04:06;;;;;;;21.20;14.93;;;;;;;19.70;54.35;101174.28;5021073;28;20033;-89
2021/06/19 05:06:34;;;;;;;22.92;14.98;;;;;;;19.88;53.56;101174.72;5016654;28;20589;-87
2021/06/19 05:09:00;;;;;;;21.33;15.07;;;;;;;20.57;52.07;101163.28;5036369;28;20038;-89
2021/06/19 05:11:25;;;;;;;21.75;14.25;;;;;;;21.11;50.82;101167.88;5025747;28;20052;-88
2021/06/19 05:13:51;;;;;;;16.10;12.68;;;;;;;21.93;48.96;101170.03;5021539;28;20028;-87
2021/06/19 05:16:16;;;;;;;19.67;11.90;;;;;;;22.71;46.67;101167.88;5035785;28;20029;-89
2021/06/19 05:18:42;;;;;;;16.08;12.55;;;;;;;21.93;47.40;101170.03;5043742;28;20060;-88
2021/06/19 05:21:07;;;;;;;16.67;11.82;;;;;;;23.48;44.79;101169.09;5040417;28;20029;-88
2021/06/19 05:23:33;;;;;;;18.35;11.45;;;;;;;23.16;45.23;101179.94;5049571;28;20030;-87
2021/06/19 05:25:59;;;;;;;13.65;11.20;;;;;;;22.82;45.90;101179.44;5043707;28;20029;-86
2021/06/19 05:28:24;;;;;;;16.40;10.80;;;;;;;22.30;46.75;101176.78;5018643;28;20038;-87
2021/06/19 05:30:50;;;;;;;16.48;11.40;;;;;;;23.42;44.50;101181.16;5047658;28;20068;-87
2021/06/19 05:33:17;;;;;;;16.15;10.80;;;;;;;23.80;44.19;101183.97;5024777;28;20037;-87
2021/06/19 05:35:43;;;;;;;17.05;10.07;;;;;;;23.17;44.11;101186.97;5034356;28;20038;-87
2021/06/19 05:38:08;;;;;;;13.73;9.38;;;;;;;24.97;41.82;101191.75;5033385;28;20096;-88
2021/06/19 05:40:34;;;;;;;11.20;9.07;;;;;;;24.60;42.06;101193.44;5026080;28;20029;-87
2021/06/19 05:43:00;;;;;;;15.70;9.95;;;;;;;25.48;39.65;101199.19;5025878;28;20038;-88
2021/06/19 05:45:25;;;;;;;16.67;10.60;;;;;;;25.76;39.75;101196.47;5029931;28;20037;-88
2021/06/19 05:47:51;;;;;;;13.93;10.45;;;;;;;25.84;38.95;101203.72;5044621;28;20048;-90
2021/06/19 05:50:17;;;;;;;14.20;10.38;;;;;;;26.80;36.69;101217.13;5042069;28;20040;-90
2021/06/19 05:52:42;;;;;;;10.60;9.10;;;;;;;26.50;37.79;101208.59;5044625;28;20033;-84
2021/06/19 05:55:09;;;;;;;13.63;10.27;;;;;;;26.75;36.73;101214.09;5039078;28;20061;-89
2021/06/19 05:57:35;;;;;;;12.50;9.55;;;;;;;26.00;38.60;101219.94;5022253;28;20044;-89
2021/06/19 06:00:02;;;;;;;12.70;9.80;;;;;;;23.16;44.34;101225.28;5026161;28;20038;-87
2021/06/19 06:02:40;;;;;;;13.02;10.48;;;;;;;21.14;49.38;101234.06;5043674;28;20502;-88
2021/06/19 06:05:06;;;;;;;20.85;12.13;;;;;;;20.40;50.87;101230.97;5041166;28;20043;-89
2021/06/19 06:07:31;;;;;;;20.05;13.48;;;;;;;20.30;51.79;101232.63;5020173;28;20033;-87
2021/06/19 06:09:57;;;;;;;17.50;13.23;;;;;;;20.17;52.26;101237.13;5039738;28;20037;-90
2021/06/19 06:12:22;;;;;;;17.60;12.15;;;;;;;20.19;52.32;101237.88;5040616;28;20476;-86
2021/06/19 06:14:48;;;;;;;19.23;13.35;;;;;;;20.04;53.57;101246.03;5026206;28;20355;-87
2021/06/19 06:17:14;;;;;;;23.50;12.73;;;;;;;20.57;52.07;101247.41;5019583;28;20152;-89
2021/06/19 06:19:40;;;;;;;14.45;11.18;;;;;;;23.13;45.89;101238.88;5033457;28;20044;-86
2021/06/19 06:22:06;;;;;;;15.35;11.43;;;;;;;23.93;43.70;101239.78;5066408;28;20037;-87
2021/06/19 06:24:32;;;;;;;14.43;11.45;;;;;;;24.54;41.84;101241.28;5055025;28;20033;-88
2021/06/19 06:26:58;;;;;;;15.27;11.25;;;;;;;25.19;41.37;101241.34;5056747;28;20091;-86
2021/06/19 06:29:24;;;;;;;17.58;12.50;;;;;;;24.41;41.77;101245.13;5040079;28;20120;-87
2021/06/19 06:31:51;;;;;;;15.88;12.15;;;;;;;23.97;43.67;101249.22;5055731;28;20106;-88
2021/06/19 06:34:18;;;;;;;17.42;11.88;;;;;;;21.52;48.21;101263.91;5058721;28;20040;-89
2021/06/19 06:36:43;;;;;;;14.93;12.38;;;;;;;21.29;49.35;101255.09;5073797;28;20028;-87
2021/06/19 06:39:09;;;;;;;18.02;12.52;;;;;;;19.97;52.71;101260.72;5051304;28;20029;-87
2021/06/19 06:41:35;;;;;;;17.05;12.48;;;;;;;21.69;49.55;101260.75;5059329;28;20033;-87
2021/06/19 06:44:01;;;;;;;20.20;12.07;;;;;;;23.08;46.04;101252.63;5056681;28;20033;-90
2021/06/19 06:46:29;;;;;;;20.42;11.57;;;;;;;22.95;45.64;101254.66;5042083;28;20062;-89
2021/06/19 06:48:55;;;;;;;17.60;12.48;;;;;;;23.44;44.52;101258.38;5043699;28;20029;-87
2021/06/19 06:51:21;;;;;;;16.33;10.98;;;;;;;24.74;43.85;101258.09;5057709;28;20033;-89
2021/06/19 06:53:46;;;;;;;13.98;11.95;;;;;;;25.54;40.51;101250.47;5058052;28;20087;-87
2021/06/19 06:56:12;;;;;;;15.15;12.57;;;;;;;25.05;41.18;101261.41;5060347;28;20032;-87
2021/06/19 06:58:37;;;;;;;12.77;11.07;;;;;;;26.34;39.48;101253.22;5069361;28;20032;-87
2021/06/19 07:01:03;;;;;;;16.70;11.98;;;;;;;24.10;42.05;101260.44;5072308;28;20055;-88
2021/06/19 07:03:28;;;;;;;17.40;11.98;;;;;;;24.34;43.46;101257.31;5057911;28;20045;-88
2021/06/19 07:05:54;;;;;;;13.65;11.98;;;;;;;24.61;41.52;101256.56;5060358;28;20041;-90
2021/06/19 07:08:22;;;;;;;19.60;12.80;;;;;;;23.26;44.51;101257.31;5058517;28;20078;-88
2021/06/19 07:10:47;;;;;;;18.15;13.48;;;;;;;22.84;45.63;101265.41;5057448;28;20405;-89
2021/06/19 07:13:13;;;;;;;15.43;11.93;;;;;;;24.69;42.25;101263.06;5061300;28;20033;-87
2021/06/19 07:15:43;;;;;;;14.15;11.50;;;;;;;24.04;42.43;101266.34;5059476;28;20033;-90
2021/06/19 07:18:15;;;;;;;17.75;13.20;;;;;;;23.99;43.69;101268.56;5029719;28;20037;-88
2021/06/19 07:20:58;;;;;;;20.88;13.80;;;;;;;23.14;44.86;101272.56;5047223;28;20677;-87
2021/06/19 07:23:37;;;;;;;20.77;14.43;;;;;;;22.75;45.47;101277.72;5055030;28;20508;-88
2021/06/19 07:26:15;;;;;;;18.63;14.38;;;;;;;21.13;49.55;101287.34;5054913;28;20048;-89
2021/06/19 07:28:45;;;;;;;22.85;14.88;;;;;;;21.31;49.35;101280.59;5042208;28;20044;-86
2021/06/19 07:31:45;;;;;;;26.52;13.10;;;;;;;20.71;49.56;101287.88;5056628;28;20041;-89
2021/06/19 07:34:28;;;;;;;16.08;12.07;;;;;;;21.61;47.70;101294.25;5057094;28;20073;-89
2021/06/19 07:37:42;;;;;;;13.20;11.50;;;;;;;22.81;44.22;101293.19;5041933;28;20098;-87
2021/06/19 07:40:36;;;;;;;13.48;10.57;;;;;;;24.77;40.66;101300.56;5040054;28;20036;-89
2021/06/19 07:43:32;;;;;;;12.52;9.65;;;;;;;26.49;37.10;101297.16;5070606;28;20022;-90
2021/06/19 07:46:49;;;;;;;;;;;;;;;;;;;;;
2021/06/19 07:49:43;;;;;;;;;;;;;;;;;;;;;
2021/06/19 07:52:36;;;;;;;11.35;9.13;;;;;;;24.92;39.18;101288.41;5057593;28;20406;-89
2021/06/19 07:55:25;;;;;;;;;;;;;;;23.56;41.94;101296.44;5055606;28;20111;-89
2021/06/19 08:02:10;;;;;;;8.77;6.72;;;;;;;21.18;45.39;101298.47;5058079;28;20046;-90
2021/06/19 08:04:50;;;;;;;10.48;6.68;;;;;;;21.08;46.23;101321.41;5056274;28;20048;-88
2021/06/19 08:07:19;;;;;;;8.32;6.30;;;;;;;20.09;48.18;101312.84;5054515;28;20029;-90
2021/06/19 08:09:45;;;;;;;6.57;5.78;;;;;;;19.85;48.65;101307.53;5040475;28;20029;-89
2021/06/19 08:12:11;;;;;;;7.22;5.55;;;;;;;20.67;47.12;101314.81;5039787;28;20487;-88
2021/06/19 08:15:25;;;;;;;9.40;6.30;;;;;;;20.40;47.33;101315.91;5043641;28;20040;-90
2021/06/19 08:17:59;;;;;;;11.20;6.78;;;;;;;19.72;49.33;101333.25;5036872;28;20108;-87
2021/06/19 08:20:29;;;;;;;9.50;6.65;;;;;;;22.96;41.49;101329.19;5027403;28;20037;-90
2021/06/19 08:23:11;;;;;;;9.52;5.60;;;;;;;24.98;37.42;101319.97;5047979;28;20082;-89
2021/06/19 08:25:49;;;;;;;;;;;;;;;;;;;;;
2021/06/19 08:28:21;;;;;;;7.47;5.82;;;;;;;23.84;39.64;101334.84;5057476;28;20079;-89
2021/06/19 08:30:49;;;;;;;8.15;6.72;;;;;;;22.09;43.63;101333.81;5040375;28;20544;-91
2021/06/19 08:33:18;;;;;;;10.27;7.30;;;;;;;22.47;43.63;101333.31;5038947;28;20045;-90
2021/06/19 08:35:44;;;;;;;9.25;7.45;;;;;;;23.51;39.63;101333.38;5056266;28;20335;-91
2021/06/19 08:38:09;;;;;;;9.27;6.80;;;;;;;26.20;37.16;101330.47;5050452;28;20037;-90
2021/06/19 08:40:37;;;;;;;9.30;6.40;;;;;;;28.29;32.50;101326.66;5053147;28;20044;-89
2021/06/19 08:43:11;;;;;;;7.85;6.18;;;;;;;28.09;31.05;101326.09;5054094;28;20525;-90
2021/06/19 08:45:37;;;;;;;9.45;5.82;;;;;;;27.98;32.10;101329.09;5048839;28;20104;-88
2021/06/19 08:48:07;;;;;;;9.43;6.05;;;;;;;26.14;33.88;101327.56;5031811;28;20598;-89
2021/06/19 08:50:36;;;;;;;7.07;6.38;;;;;;;27.34;32.57;101331.41;5061562;28;20074;-87
2021/06/19 08:53:02;;;;;;;11.35;6.72;;;;;;;27.18;32.97;101334.88;5052215;28;20032;-87
2021/06/19 08:55:28;;;;;;;9.93;6.90;;;;;;;27.25;31.87;101322.47;5053824;28;20115;-88
2021/06/19 08:57:54;;;;;;;10.98;7.03;;;;;;;26.95;32.94;101326.50;5039026;28;20037;-88
2021/06/19 09:00:20;;;;;;;10.80;7.32;;;;;;;26.27;34.33;101334.19;5055500;28;20243;-88
2021/06/19 09:02:57;;;;;;;10.40;6.40;;;;;;;27.19;32.64;101323.97;5055881;28;20437;-90
2021/06/19 09:05:30;;;;;;;9.38;5.43;;;;;;;25.92;35.37;101334.16;5051875;28;20123;-89
2021/06/19 09:07:58;;;;;;;6.15;4.70;;;;;;;24.93;35.51;101337.38;5052963;28;20032;-88
2021/06/19 09:10:35;;;;;;;5.45;4.95;;;;;;;25.65;34.72;101339.41;5023919;28;20382;-89
2021/06/19 09:13:13;;;;;;;6.68;5.28;;;;;;;24.65;36.78;101337.31;5072427;28;20040;-89
2021/06/19 09:15:44;;;;;;;8.75;4.72;;;;;;;25.63;35.43;101337.88;5045268;28;20818;-89
2021/06/19 09:18:12;;;;;;;;;;;;;;;26.26;32.55;101343.22;5050810;28;20033;-88
2021/06/19 09:20:39;;;;;;;7.03;4.90;;;;;;;26.02;33.38;101351.84;5060819;28;19927;-89
2021/06/19 09:23:11;;;;;;;4.75;4.22;;;;;;;25.80;34.53;101345.09;5073149;28;20032;-89
2021/06/19 09:25:38;;;;;;;6.85;4.72;;;;;;;26.44;33.62;101355.78;5054790;28;20508;-90
2021/06/19 09:28:06;;;;;;;7.05;4.72;;;;;;;28.09;30.85;101342.22;5076609;28;20080;-90
2021/06/19 09:30:33;;;;;;;8.40;4.53;;;;;;;27.59;31.38;101351.16;5058527;28;20291;-89
2021/06/19 09:33:01;;;;;;;8.32;5.63;;;;;;;25.21;35.38;101341.81;5059543;28;20041;-87
2021/06/19 09:35:32;;;;;;;8.57;4.70;;;;;;;24.23;37.63;101341.09;5056977;28;20437;-86
2021/06/19 09:38:05;;;;;;;;;;;;;;;24.11;36.85;101347.56;5045303;28;20029;-86
2021/06/19 09:40:43;;;;;;;7.60;5.70;;;;;;;23.78;37.94;101346.91;5055825;28;19924;-90
2021/06/19 09:43:16;;;;;;;7.57;5.63;;;;;;;25.03;36.95;101343.59;5057655;28;20047;-91
2021/06/19 09:46:10;;;;;;;7.28;5.30;;;;;;;25.01;36.82;101353.59;5055420;28;20035;-88
2021/06/19 09:48:43;;;;;;;9.60;4.65;;;;;;;25.22;35.16;101348.03;5038284;28;20167;-89
2021/06/19 09:51:21;;;;;;;7.18;4.68;;;;;;;24.70;36.27;101352.91;5056849;28;20192;-89
2021/06/19 09:53:52;;;;;;;13.70;4.65;;;;;;;24.04;37.96;101354.44;5052637;28;20033;-89
2021/06/19 09:56:24;;;;;;;11.52;6.57;;;;;;;24.72;35.95;101357.13;5067573;28;20033;-89
2021/06/19 09:58:56;;;;;;;8.40;5.90;;;;;;;24.98;35.76;101357.41;5033865;28;20465;-88
2021/06/19 10:01:33;;;;;;;10.02;5.35;;;;;;;25.94;34.50;101358.97;5043572;28;20071;-88
2021/06/19 10:04:01;;;;;;;6.40;4.80;;;;;;;25.96;33.42;101346.28;5039792;28;20332;-89
2021/06/19 10:06:28;;;;;;;7.07;5.53;;;;;;;23.75;37.05;101360.53;5060643;28;20285;-88
2021/06/19 10:08:58;;;;;;;8.50;4.50;;;;;;;25.08;34.29;101353.84;5058275;28;20104;-89
2021/06/19 10:11:27;;;;;;;6.65;4.85;;;;;;;23.52;37.45;101357.25;5053055;28;20024;-87
2021/06/19 10:13:56;;;;;;;7.85;3.83;;;;;;;24.51;35.96;101353.81;5042232;28;20062;-89
2021/06/19 10:16:24;;;;;;;10.13;4.65;;;;;;;25.55;33.42;101356.50;5060508;28;20036;-89
2021/06/19 10:18:51;;;;;;;7.88;4.85;;;;;;;23.54;37.22;101373.09;5047041;28;20082;-89
2021/06/19 10:21:19;;;;;;;8.75;4.18;;;;;;;24.54;36.57;101366.88;5064681;28;20079;-87
2021/06/19 10:23:45;;;;;;;6.40;3.92;;;;;;;24.55;36.36;101361.38;5058407;28;20090;-89
2021/06/19 10:26:11;;;;;;;9.40;4.50;;;;;;;26.06;32.79;101352.41;5036707;28;20037;-89
2021/06/19 10:28:43;;;;;;;5.30;4.10;;;;;;;24.58;33.73;101350.41;5037876;28;20051;-89
2021/06/19 10:31:22;;;;;;;6.03;3.65;;;;;;;24.82;34.76;101357.13;5144892;27;115310;-65
2021/06/19 10:33:48;;;;;;;8.18;3.13;;;;;;;26.01;33.07;101354.69;5121762;27;20027;-67
2021/06/19 10:36:16;;;;;;;6.32;4.00;;;;;;;24.99;33.39;101348.38;5117449;27;20095;-67
2021/06/19 10:38:54;;;;;;;7.43;4.90;;;;;;;24.54;34.91;101343.66;5118181;27;20028;-66
2021/06/19 10:41:44;;;;;;;6.20;4.05;;;;;;;25.89;33.34;101346.03;5114790;28;20528;-66
2021/06/19 10:44:09;;;;;;;6.38;4.22;;;;;;;25.16;33.14;101349.47;5111093;28;20028;-65
2021/06/19 10:46:38;;;;;;;8.10;4.90;;;;;;;25.38;32.56;101353.59;5104712;27;20050;-67
2021/06/19 10:49:20;;;;;;;8.55;4.22;;;;;;;25.43;33.17;101345.13;5102159;28;20027;-67
2021/06/19 10:51:48;;;;;;;10.93;6.15;;;;;;;24.84;34.43;101357.84;5105384;28;20032;-67
2021/06/19 10:54:21;;;;;;;9.77;5.80;;;;;;;24.71;35.21;101355.47;5102810;28;20058;-68
2021/06/19 10:56:59;;;;;;;10.63;6.00;;;;;;;26.27;31.81;101350.28;5102146;28;20038;-67
2021/06/19 10:59:31;;;;;;;9.85;5.25;;;;;;;27.23;31.08;101345.97;5103601;27;20680;-65
2021/06/19 11:02:02;;;;;;;7.88;5.13;;;;;;;26.82;31.68;101351.91;5094011;28;20216;-66
2021/06/19 11:04:40;;;;;;;8.82;4.85;;;;;;;27.61;30.94;101344.63;5100437;28;20031;-67
2021/06/19 11:07:20;;;;;;;5.85;5.25;;;;;;;25.98;31.67;101355.00;5106542;28;20032;-68
2021/06/19 11:09:48;;;;;;;10.55;6.05;;;;;;;27.22;31.49;101349.66;5100231;28;20102;-67
2021/06/19 11:12:30;;;;;;;9.85;5.35;;;;;;;26.41;32.08;101356.09;5102416;28;20126;-66
2021/06/19 11:15:09;;;;;;;8.18;5.80;;;;;;;25.41;33.66;101357.81;5099515;28;20027;-67
2021/06/19 11:17:34;;;;;;;9.70;5.97;;;;;;;25.62;33.63;101354.91;5099623;28;20024;-65
2021/06/19 11:20:08;;;;;;;9.88;6.18;;;;;;;25.06;33.88;101353.97;5100515;28;20039;-67
2021/06/19 11:22:56;;;;;;;10.57;6.35;;;;;;;25.33;33.53;101345.19;5101527;28;20031;-68
2021/06/19 11:25:59;;;;;;;9.15;6.53;;;;;;;25.21;33.63;101343.66;5099907;28;20027;-67
2021/06/19 11:28:28;;;;;;;10.10;6.35;;;;;;;25.87;32.99;101343.50;5105217;27;20496;-67
2021/06/19 11:31:05;;;;;;;10.57;5.65;;;;;;;26.45;32.83;101341.38;5083089;28;20070;-67
2021/06/19 11:33:41;;;;;;;10.32;7.00;;;;;;;26.20;33.08;101343.84;5100870;28;20063;-67
2021/06/19 11:36:06;;;;;;;10.88;7.80;;;;;;;25.73;33.19;101346.66;5102964;28;20080;-68